sensor_id;sensor_type;location;lat;lon;timestamp;temperature;humidity
79762;DHT22;69249;42.122;24.734;2023-07-13T00:00:13;28.10;47.20
79762;DHT22;69249;42.122;24.734;2023-07-13T00:02:42;28.10;47.40
79762;DHT22;69249;42.122;24.734;2023-07-13T00:05:08;28.20;47.40
79762;DHT22;69249;42.122;24.734;2023-07-13T00:07:35;28.20;47.30
79762;DHT22;69249;42.122;24.734;2023-07-13T00:10:01;28.20;47.40
79762;DHT22;69249;42.122;24.734;2023-07-13T00:12:29;28.20;47.40
79762;DHT22;69249;42.122;24.734;2023-07-13T00:14:58;28.10;47.50
79762;DHT22;69249;42.122;24.734;2023-07-13T00:17:26;28.20;47.40
79762;DHT22;69249;42.122;24.734;2023-07-13T00:19:52;28.10;47.50
79762;DHT22;69249;42.122;24.734;2023-07-13T00:22:19;28.10;47.70
79762;DHT22;69249;42.122;24.734;2023-07-13T00:24:45;28.10;47.90
79762;DHT22;69249;42.122;24.734;2023-07-13T00:27:11;28.20;46.60
79762;DHT22;69249;42.122;24.734;2023-07-13T00:29:37;28.20;46.70
79762;DHT22;69249;42.122;24.734;2023-07-13T00:32:04;28.20;46.70
79762;DHT22;69249;42.122;24.734;2023-07-13T00:34:30;28.10;47.00
79762;DHT22;69249;42.122;24.734;2023-07-13T00:36:57;28.20;46.40
79762;DHT22;69249;42.122;24.734;2023-07-13T00:39:22;28.20;46.10
79762;DHT22;69249;42.122;24.734;2023-07-13T00:41:49;28.20;45.70
79762;DHT22;69249;42.122;24.734;2023-07-13T00:44:16;28.30;45.50
79762;DHT22;69249;42.122;24.734;2023-07-13T00:46:42;28.20;45.90
79762;DHT22;69249;42.122;24.734;2023-07-13T00:49:13;28.20;45.60
79762;DHT22;69249;42.122;24.734;2023-07-13T00:51:56;28.00;46.20
79762;DHT22;69249;42.122;24.734;2023-07-13T00:54:43;27.90;46.60
79762;DHT22;69249;42.122;24.734;2023-07-13T00:57:14;27.80;46.80
79762;DHT22;69249;42.122;24.734;2023-07-13T00:59:42;27.70;47.00
79762;DHT22;69249;42.122;24.734;2023-07-13T01:02:09;27.60;47.20
79762;DHT22;69249;42.122;24.734;2023-07-13T01:04:35;27.60;47.10
79762;DHT22;69249;42.122;24.734;2023-07-13T01:07:01;27.60;47.20
79762;DHT22;69249;42.122;24.734;2023-07-13T01:09:27;27.70;47.40
79762;DHT22;69249;42.122;24.734;2023-07-13T01:11:53;27.70;46.90
79762;DHT22;69249;42.122;24.734;2023-07-13T01:14:19;27.60;47.00
79762;DHT22;69249;42.122;24.734;2023-07-13T01:16:46;27.70;47.10
79762;DHT22;69249;42.122;24.734;2023-07-13T01:19:40;27.70;47.20
79762;DHT22;69249;42.122;24.734;2023-07-13T01:22:13;27.70;47.00
79762;DHT22;69249;42.122;24.734;2023-07-13T01:24:41;27.70;46.90
79762;DHT22;69249;42.122;24.734;2023-07-13T01:27:08;27.60;47.00
79762;DHT22;69249;42.122;24.734;2023-07-13T01:29:37;27.60;46.90
79762;DHT22;69249;42.122;24.734;2023-07-13T01:32:15;27.60;47.30
79762;DHT22;69249;42.122;24.734;2023-07-13T01:34:41;27.60;47.50
79762;DHT22;69249;42.122;24.734;2023-07-13T01:37:09;27.60;47.30
79762;DHT22;69249;42.122;24.734;2023-07-13T01:39:35;27.60;47.10
79762;DHT22;69249;42.122;24.734;2023-07-13T01:42:01;27.60;47.30
79762;DHT22;69249;42.122;24.734;2023-07-13T01:44:27;27.50;47.30
79762;DHT22;69249;42.122;24.734;2023-07-13T01:46:53;27.50;47.40
79762;DHT22;69249;42.122;24.734;2023-07-13T01:49:18;27.70;46.60
79762;DHT22;69249;42.122;24.734;2023-07-13T01:51:44;27.60;46.60
79762;DHT22;69249;42.122;24.734;2023-07-13T01:54:10;27.60;46.40
79762;DHT22;69249;42.122;24.734;2023-07-13T01:56:35;27.60;46.90
79762;DHT22;69249;42.122;24.734;2023-07-13T01:59:01;27.40;47.50
79762;DHT22;69249;42.122;24.734;2023-07-13T02:01:27;27.30;47.70
79762;DHT22;69249;42.122;24.734;2023-07-13T02:03:52;27.30;47.90
79762;DHT22;69249;42.122;24.734;2023-07-13T02:06:18;27.30;47.90
79762;DHT22;69249;42.122;24.734;2023-07-13T02:08:44;27.30;48.10
79762;DHT22;69249;42.122;24.734;2023-07-13T02:11:09;27.30;47.90
79762;DHT22;69249;42.122;24.734;2023-07-13T02:13:35;27.30;47.70
79762;DHT22;69249;42.122;24.734;2023-07-13T02:16:01;27.30;47.50
79762;DHT22;69249;42.122;24.734;2023-07-13T02:18:26;27.30;47.80
79762;DHT22;69249;42.122;24.734;2023-07-13T02:20:52;27.30;47.90
79762;DHT22;69249;42.122;24.734;2023-07-13T02:23:18;27.30;47.90
79762;DHT22;69249;42.122;24.734;2023-07-13T02:25:44;27.20;47.60
79762;DHT22;69249;42.122;24.734;2023-07-13T02:28:10;27.20;47.40
79762;DHT22;69249;42.122;24.734;2023-07-13T02:30:36;27.20;47.30
79762;DHT22;69249;42.122;24.734;2023-07-13T02:33:02;27.20;47.50
79762;DHT22;69249;42.122;24.734;2023-07-13T02:35:28;27.10;47.50
79762;DHT22;69249;42.122;24.734;2023-07-13T02:37:53;27.10;47.80
79762;DHT22;69249;42.122;24.734;2023-07-13T02:40:19;27.00;47.70
79762;DHT22;69249;42.122;24.734;2023-07-13T02:42:45;26.90;47.60
79762;DHT22;69249;42.122;24.734;2023-07-13T02:45:11;26.90;47.60
79762;DHT22;69249;42.122;24.734;2023-07-13T02:47:40;26.90;47.50
79762;DHT22;69249;42.122;24.734;2023-07-13T02:50:06;26.90;47.00
79762;DHT22;69249;42.122;24.734;2023-07-13T02:52:32;26.70;47.20
79762;DHT22;69249;42.122;24.734;2023-07-13T02:54:58;26.70;47.80
79762;DHT22;69249;42.122;24.734;2023-07-13T02:57:23;26.70;48.20
79762;DHT22;69249;42.122;24.734;2023-07-13T02:59:49;26.80;48.10
79762;DHT22;69249;42.122;24.734;2023-07-13T03:02:15;26.80;47.20
79762;DHT22;69249;42.122;24.734;2023-07-13T03:04:41;26.90;46.60
79762;DHT22;69249;42.122;24.734;2023-07-13T03:07:10;27.10;45.60
79762;DHT22;69249;42.122;24.734;2023-07-13T03:09:36;26.90;46.20
79762;DHT22;69249;42.122;24.734;2023-07-13T03:12:02;26.80;46.60
79762;DHT22;69249;42.122;24.734;2023-07-13T03:14:28;27.00;45.60
79762;DHT22;69249;42.122;24.734;2023-07-13T03:16:53;27.10;45.20
79762;DHT22;69249;42.122;24.734;2023-07-13T03:19:19;27.00;45.60
79762;DHT22;69249;42.122;24.734;2023-07-13T03:21:45;27.00;45.60
79762;DHT22;69249;42.122;24.734;2023-07-13T03:24:11;26.90;46.00
79762;DHT22;69249;42.122;24.734;2023-07-13T03:26:38;26.90;46.30
79762;DHT22;69249;42.122;24.734;2023-07-13T03:29:04;26.80;46.30
79762;DHT22;69249;42.122;24.734;2023-07-13T03:31:32;26.90;46.30
79762;DHT22;69249;42.122;24.734;2023-07-13T03:33:58;26.80;46.70
79762;DHT22;69249;42.122;24.734;2023-07-13T03:36:26;26.90;46.90
79762;DHT22;69249;42.122;24.734;2023-07-13T03:38:55;26.90;46.10
79762;DHT22;69249;42.122;24.734;2023-07-13T03:41:23;26.90;46.20
79762;DHT22;69249;42.122;24.734;2023-07-13T03:43:49;26.90;45.90
79762;DHT22;69249;42.122;24.734;2023-07-13T03:46:16;26.80;46.20
79762;DHT22;69249;42.122;24.734;2023-07-13T03:48:46;26.80;46.40
79762;DHT22;69249;42.122;24.734;2023-07-13T03:51:13;26.90;46.20
79762;DHT22;69249;42.122;24.734;2023-07-13T03:53:41;26.90;45.80
79762;DHT22;69249;42.122;24.734;2023-07-13T03:56:08;26.90;45.80
79762;DHT22;69249;42.122;24.734;2023-07-13T03:58:35;26.90;45.60
79762;DHT22;69249;42.122;24.734;2023-07-13T04:01:02;26.90;45.60
79762;DHT22;69249;42.122;24.734;2023-07-13T04:03:29;26.90;45.50
79762;DHT22;69249;42.122;24.734;2023-07-13T04:05:59;27.00;45.40
79762;DHT22;69249;42.122;24.734;2023-07-13T04:08:30;26.90;45.40
79762;DHT22;69249;42.122;24.734;2023-07-13T04:10:57;27.00;45.40
79762;DHT22;69249;42.122;24.734;2023-07-13T04:13:23;27.20;45.40
79762;DHT22;69249;42.122;24.734;2023-07-13T04:15:49;27.30;45.10
79762;DHT22;69249;42.122;24.734;2023-07-13T04:18:15;27.40;45.10
79762;DHT22;69249;42.122;24.734;2023-07-13T04:20:41;27.50;45.00
79762;DHT22;69249;42.122;24.734;2023-07-13T04:23:07;27.60;44.70
79762;DHT22;69249;42.122;24.734;2023-07-13T04:25:33;27.50;45.00
79762;DHT22;69249;42.122;24.734;2023-07-13T04:27:58;27.40;45.10
79762;DHT22;69249;42.122;24.734;2023-07-13T04:30:24;27.40;45.50
79762;DHT22;69249;42.122;24.734;2023-07-13T04:32:53;27.40;45.30
79762;DHT22;69249;42.122;24.734;2023-07-13T04:35:20;27.40;45.40
79762;DHT22;69249;42.122;24.734;2023-07-13T04:37:49;27.50;45.40
79762;DHT22;69249;42.122;24.734;2023-07-13T04:40:17;27.40;45.70
79762;DHT22;69249;42.122;24.734;2023-07-13T04:42:44;27.40;46.00
79762;DHT22;69249;42.122;24.734;2023-07-13T04:45:10;27.50;46.00
79762;DHT22;69249;42.122;24.734;2023-07-13T04:47:36;27.60;46.00
79762;DHT22;69249;42.122;24.734;2023-07-13T04:50:02;27.70;45.20
79762;DHT22;69249;42.122;24.734;2023-07-13T04:52:28;27.90;45.20
79762;DHT22;69249;42.122;24.734;2023-07-13T04:54:54;28.00;44.80
79762;DHT22;69249;42.122;24.734;2023-07-13T04:57:19;28.10;44.80
79762;DHT22;69249;42.122;24.734;2023-07-13T04:59:45;28.20;44.60
79762;DHT22;69249;42.122;24.734;2023-07-13T05:02:11;28.30;43.90
79762;DHT22;69249;42.122;24.734;2023-07-13T05:04:36;28.40;43.60
79762;DHT22;69249;42.122;24.734;2023-07-13T05:07:02;28.20;44.20
79762;DHT22;69249;42.122;24.734;2023-07-13T05:09:28;28.40;43.90
79762;DHT22;69249;42.122;24.734;2023-07-13T05:11:54;28.40;44.00
79762;DHT22;69249;42.122;24.734;2023-07-13T05:14:19;28.40;44.10
79762;DHT22;69249;42.122;24.734;2023-07-13T05:16:45;28.50;43.70
79762;DHT22;69249;42.122;24.734;2023-07-13T05:19:12;28.50;43.20
79762;DHT22;69249;42.122;24.734;2023-07-13T05:21:37;28.40;43.40
79762;DHT22;69249;42.122;24.734;2023-07-13T05:24:03;28.50;43.70
79762;DHT22;69249;42.122;24.734;2023-07-13T05:26:29;28.40;43.60
79762;DHT22;69249;42.122;24.734;2023-07-13T05:28:54;28.30;44.50
79762;DHT22;69249;42.122;24.734;2023-07-13T05:31:20;28.50;43.90
79762;DHT22;69249;42.122;24.734;2023-07-13T05:33:46;28.50;43.90
79762;DHT22;69249;42.122;24.734;2023-07-13T05:36:11;28.60;44.30
79762;DHT22;69249;42.122;24.734;2023-07-13T05:38:37;28.60;44.30
79762;DHT22;69249;42.122;24.734;2023-07-13T05:41:03;28.50;44.20
79762;DHT22;69249;42.122;24.734;2023-07-13T05:43:28;28.60;44.00
79762;DHT22;69249;42.122;24.734;2023-07-13T05:45:55;28.70;43.80
79762;DHT22;69249;42.122;24.734;2023-07-13T05:48:21;28.80;43.10
79762;DHT22;69249;42.122;24.734;2023-07-13T05:50:47;28.80;43.40
79762;DHT22;69249;42.122;24.734;2023-07-13T05:53:13;28.80;43.10
79762;DHT22;69249;42.122;24.734;2023-07-13T05:55:46;29.00;43.00
79762;DHT22;69249;42.122;24.734;2023-07-13T05:58:19;29.00;42.90
79762;DHT22;69249;42.122;24.734;2023-07-13T06:00:45;29.10;42.80
79762;DHT22;69249;42.122;24.734;2023-07-13T06:03:11;29.20;42.40
79762;DHT22;69249;42.122;24.734;2023-07-13T06:05:38;29.30;42.00
79762;DHT22;69249;42.122;24.734;2023-07-13T06:08:05;29.30;42.10
79762;DHT22;69249;42.122;24.734;2023-07-13T06:10:35;29.20;42.60
79762;DHT22;69249;42.122;24.734;2023-07-13T06:13:00;29.30;43.00
79762;DHT22;69249;42.122;24.734;2023-07-13T06:15:26;29.50;41.60
79762;DHT22;69249;42.122;24.734;2023-07-13T06:17:52;29.70;40.70
79762;DHT22;69249;42.122;24.734;2023-07-13T06:20:17;29.80;40.40
79762;DHT22;69249;42.122;24.734;2023-07-13T06:22:43;29.70;41.00
79762;DHT22;69249;42.122;24.734;2023-07-13T06:25:09;29.80;41.30
79762;DHT22;69249;42.122;24.734;2023-07-13T06:27:35;29.90;41.40
79762;DHT22;69249;42.122;24.734;2023-07-13T06:30:00;29.80;40.70
79762;DHT22;69249;42.122;24.734;2023-07-13T06:32:26;30.10;39.50
79762;DHT22;69249;42.122;24.734;2023-07-13T06:34:52;30.20;39.00
79762;DHT22;69249;42.122;24.734;2023-07-13T06:37:18;30.30;37.80
79762;DHT22;69249;42.122;24.734;2023-07-13T06:39:44;30.30;37.90
79762;DHT22;69249;42.122;24.734;2023-07-13T06:42:10;30.30;38.10
79762;DHT22;69249;42.122;24.734;2023-07-13T06:44:36;30.50;36.00
79762;DHT22;69249;42.122;24.734;2023-07-13T06:47:02;30.60;36.80
79762;DHT22;69249;42.122;24.734;2023-07-13T06:49:27;30.70;36.50
79762;DHT22;69249;42.122;24.734;2023-07-13T06:51:53;30.80;36.10
79762;DHT22;69249;42.122;24.734;2023-07-13T06:54:19;30.90;36.10
79762;DHT22;69249;42.122;24.734;2023-07-13T06:56:44;30.90;36.30
79762;DHT22;69249;42.122;24.734;2023-07-13T06:59:10;30.90;36.90
79762;DHT22;69249;42.122;24.734;2023-07-13T07:01:36;31.00;36.70
79762;DHT22;69249;42.122;24.734;2023-07-13T07:04:02;31.20;36.30
79762;DHT22;69249;42.122;24.734;2023-07-13T07:06:28;31.20;36.50
79762;DHT22;69249;42.122;24.734;2023-07-13T07:08:54;31.30;35.90
79762;DHT22;69249;42.122;24.734;2023-07-13T07:11:24;31.40;36.00
79762;DHT22;69249;42.122;24.734;2023-07-13T07:13:51;31.50;35.30
79762;DHT22;69249;42.122;24.734;2023-07-13T07:16:17;31.70;35.20
79762;DHT22;69249;42.122;24.734;2023-07-13T07:18:43;31.70;35.30
79762;DHT22;69249;42.122;24.734;2023-07-13T07:21:09;31.70;35.40
79762;DHT22;69249;42.122;24.734;2023-07-13T07:23:35;31.80;35.10
79762;DHT22;69249;42.122;24.734;2023-07-13T07:26:01;31.90;35.10
79762;DHT22;69249;42.122;24.734;2023-07-13T07:28:27;32.00;35.20
79762;DHT22;69249;42.122;24.734;2023-07-13T07:30:55;32.20;34.70
79762;DHT22;69249;42.122;24.734;2023-07-13T07:33:21;32.30;34.30
79762;DHT22;69249;42.122;24.734;2023-07-13T07:35:47;32.60;34.00
79762;DHT22;69249;42.122;24.734;2023-07-13T07:38:13;32.60;33.30
79762;DHT22;69249;42.122;24.734;2023-07-13T07:40:40;32.60;33.90
79762;DHT22;69249;42.122;24.734;2023-07-13T07:43:07;32.60;34.00
79762;DHT22;69249;42.122;24.734;2023-07-13T07:45:33;32.60;34.30
79762;DHT22;69249;42.122;24.734;2023-07-13T07:47:59;32.70;34.20
79762;DHT22;69249;42.122;24.734;2023-07-13T07:50:26;32.80;33.70
79762;DHT22;69249;42.122;24.734;2023-07-13T07:52:52;33.00;33.30
79762;DHT22;69249;42.122;24.734;2023-07-13T07:55:19;33.00;33.30
79762;DHT22;69249;42.122;24.734;2023-07-13T07:57:44;33.00;33.30
79762;DHT22;69249;42.122;24.734;2023-07-13T08:00:11;33.10;33.50
79762;DHT22;69249;42.122;24.734;2023-07-13T08:02:37;33.30;33.80
79762;DHT22;69249;42.122;24.734;2023-07-13T08:05:02;33.40;31.40
79762;DHT22;69249;42.122;24.734;2023-07-13T08:07:30;33.60;30.60
79762;DHT22;69249;42.122;24.734;2023-07-13T08:09:56;33.60;30.80
79762;DHT22;69249;42.122;24.734;2023-07-13T08:12:22;33.70;30.90
79762;DHT22;69249;42.122;24.734;2023-07-13T08:14:50;33.70;31.10
79762;DHT22;69249;42.122;24.734;2023-07-13T08:17:33;33.90;30.30
79762;DHT22;69249;42.122;24.734;2023-07-13T08:19:59;33.80;30.60
79762;DHT22;69249;42.122;24.734;2023-07-13T08:22:25;34.00;31.10
79762;DHT22;69249;42.122;24.734;2023-07-13T08:24:50;34.10;31.10
79762;DHT22;69249;42.122;24.734;2023-07-13T08:27:25;34.20;30.90
79762;DHT22;69249;42.122;24.734;2023-07-13T08:29:52;34.40;30.50
79762;DHT22;69249;42.122;24.734;2023-07-13T08:32:18;34.40;29.80
79762;DHT22;69249;42.122;24.734;2023-07-13T08:34:44;34.50;29.70
79762;DHT22;69249;42.122;24.734;2023-07-13T08:37:10;34.60;29.40
79762;DHT22;69249;42.122;24.734;2023-07-13T08:39:36;34.60;29.60
79762;DHT22;69249;42.122;24.734;2023-07-13T08:48:05;35.00;29.40
79762;DHT22;69249;42.122;24.734;2023-07-13T08:50:48;35.10;28.80
79762;DHT22;69249;42.122;24.734;2023-07-13T08:53:15;35.10;29.00
79762;DHT22;69249;42.122;24.734;2023-07-13T08:55:42;35.20;28.50
79762;DHT22;69249;42.122;24.734;2023-07-13T08:58:13;35.30;28.90
79762;DHT22;69249;42.122;24.734;2023-07-13T09:01:15;35.40;29.10
79762;DHT22;69249;42.122;24.734;2023-07-13T09:06:16;35.60;28.50
79762;DHT22;69249;42.122;24.734;2023-07-13T09:11:28;35.80;27.50
79762;DHT22;69249;42.122;24.734;2023-07-13T09:16:51;35.90;27.20
79762;DHT22;69249;42.122;24.734;2023-07-13T09:19:26;35.90;26.90
79762;DHT22;69249;42.122;24.734;2023-07-13T09:21:54;36.00;27.00
79762;DHT22;69249;42.122;24.734;2023-07-13T09:24:29;36.10;26.80
79762;DHT22;69249;42.122;24.734;2023-07-13T09:26:57;36.30;26.80
79762;DHT22;69249;42.122;24.734;2023-07-13T09:29:33;36.40;26.90
79762;DHT22;69249;42.122;24.734;2023-07-13T09:32:06;36.70;24.90
79762;DHT22;69249;42.122;24.734;2023-07-13T09:34:33;36.70;25.10
79762;DHT22;69249;42.122;24.734;2023-07-13T09:36:59;36.70;24.60
79762;DHT22;69249;42.122;24.734;2023-07-13T09:39:29;36.80;24.90
79762;DHT22;69249;42.122;24.734;2023-07-13T09:45:00;37.00;24.50
79762;DHT22;69249;42.122;24.734;2023-07-13T09:47:29;37.10;24.10
79762;DHT22;69249;42.122;24.734;2023-07-13T09:50:03;37.30;23.80
79762;DHT22;69249;42.122;24.734;2023-07-13T09:52:46;37.30;23.70
79762;DHT22;69249;42.122;24.734;2023-07-13T09:55:35;37.40;23.60
79762;DHT22;69249;42.122;24.734;2023-07-13T09:58:18;37.40;23.70
79762;DHT22;69249;42.122;24.734;2023-07-13T10:01:00;37.60;23.10
79762;DHT22;69249;42.122;24.734;2023-07-13T10:03:32;37.60;22.30
79762;DHT22;69249;42.122;24.734;2023-07-13T10:06:19;37.60;22.50
79762;DHT22;69249;42.122;24.734;2023-07-13T10:08:47;37.80;22.10
79762;DHT22;69249;42.122;24.734;2023-07-13T10:13:55;37.90;22.30
79762;DHT22;69249;42.122;24.734;2023-07-13T10:16:27;37.90;21.70
79762;DHT22;69249;42.122;24.734;2023-07-13T10:18:58;38.00;22.10
79762;DHT22;69249;42.122;24.734;2023-07-13T10:21:30;38.10;21.80
79762;DHT22;69249;42.122;24.734;2023-07-13T10:24:10;38.20;21.00
79762;DHT22;69249;42.122;24.734;2023-07-13T10:26:41;38.30;21.00
79762;DHT22;69249;42.122;24.734;2023-07-13T10:29:12;38.50;20.20
79762;DHT22;69249;42.122;24.734;2023-07-13T10:31:40;38.50;20.10
79762;DHT22;69249;42.122;24.734;2023-07-13T10:34:10;38.60;20.10
79762;DHT22;69249;42.122;24.734;2023-07-13T10:36:46;38.60;20.20
79762;DHT22;69249;42.122;24.734;2023-07-13T10:39:25;38.60;20.40
79762;DHT22;69249;42.122;24.734;2023-07-13T10:42:00;38.70;20.40
79762;DHT22;69249;42.122;24.734;2023-07-13T10:44:32;38.70;20.20
79762;DHT22;69249;42.122;24.734;2023-07-13T10:47:06;38.80;20.00
79762;DHT22;69249;42.122;24.734;2023-07-13T10:49:34;38.80;20.00
79762;DHT22;69249;42.122;24.734;2023-07-13T10:52:02;38.70;19.80
79762;DHT22;69249;42.122;24.734;2023-07-13T10:54:31;38.80;20.70
79762;DHT22;69249;42.122;24.734;2023-07-13T10:57:19;38.80;19.70
79762;DHT22;69249;42.122;24.734;2023-07-13T10:59:48;39.00;19.30
79762;DHT22;69249;42.122;24.734;2023-07-13T11:02:28;39.10;19.40
79762;DHT22;69249;42.122;24.734;2023-07-13T11:04:55;39.10;20.20
79762;DHT22;69249;42.122;24.734;2023-07-13T11:07:30;39.20;20.20
79762;DHT22;69249;42.122;24.734;2023-07-13T11:09:59;39.30;19.60
79762;DHT22;69249;42.122;24.734;2023-07-13T11:17:34;39.80;18.50
79762;DHT22;69249;42.122;24.734;2023-07-13T11:25:39;41.40;18.00
79762;DHT22;69249;42.122;24.734;2023-07-13T11:30:43;43.90;15.60
79762;DHT22;69249;42.122;24.734;2023-07-13T11:33:20;45.70;14.20
79762;DHT22;69249;42.122;24.734;2023-07-13T11:36:05;47.40;14.20
79762;DHT22;69249;42.122;24.734;2023-07-13T11:38:37;49.40;12.40
79762;DHT22;69249;42.122;24.734;2023-07-13T11:41:27;51.40;11.30
79762;DHT22;69249;42.122;24.734;2023-07-13T11:43:55;53.00;10.40
79762;DHT22;69249;42.122;24.734;2023-07-13T11:46:26;54.90;9.80
79762;DHT22;69249;42.122;24.734;2023-07-13T11:48:53;56.60;8.90
79762;DHT22;69249;42.122;24.734;2023-07-13T11:51:30;58.20;7.90
79762;DHT22;69249;42.122;24.734;2023-07-13T11:54:05;59.10;7.20
79762;DHT22;69249;42.122;24.734;2023-07-13T11:56:33;59.80;6.80
79762;DHT22;69249;42.122;24.734;2023-07-13T11:59:04;60.40;6.50
79762;DHT22;69249;42.122;24.734;2023-07-13T12:01:31;60.10;6.30
79762;DHT22;69249;42.122;24.734;2023-07-13T12:04:02;59.50;6.60
79762;DHT22;69249;42.122;24.734;2023-07-13T12:06:35;58.10;6.90
79762;DHT22;69249;42.122;24.734;2023-07-13T12:09:12;56.20;7.30
79762;DHT22;69249;42.122;24.734;2023-07-13T12:11:45;54.00;7.80
79762;DHT22;69249;42.122;24.734;2023-07-13T12:14:18;52.30;8.30
79762;DHT22;69249;42.122;24.734;2023-07-13T12:16:46;50.80;9.20
79762;DHT22;69249;42.122;24.734;2023-07-13T12:19:22;49.50;10.10
79762;DHT22;69249;42.122;24.734;2023-07-13T12:21:49;48.80;10.20
79762;DHT22;69249;42.122;24.734;2023-07-13T12:24:17;48.10;10.40
79762;DHT22;69249;42.122;24.734;2023-07-13T12:26:43;47.40;11.00
79762;DHT22;69249;42.122;24.734;2023-07-13T12:29:16;46.90;11.50
79762;DHT22;69249;42.122;24.734;2023-07-13T12:31:45;46.40;12.00
79762;DHT22;69249;42.122;24.734;2023-07-13T12:36:45;45.60;13.00
79762;DHT22;69249;42.122;24.734;2023-07-13T12:39:20;45.20;12.40
79762;DHT22;69249;42.122;24.734;2023-07-13T12:41:48;44.70;13.90
79762;DHT22;69249;42.122;24.734;2023-07-13T12:44:21;44.30;13.30
79762;DHT22;69249;42.122;24.734;2023-07-13T12:47:05;44.10;13.50
79762;DHT22;69249;42.122;24.734;2023-07-13T12:49:41;44.00;14.70
79762;DHT22;69249;42.122;24.734;2023-07-13T12:52:15;43.90;15.00
79762;DHT22;69249;42.122;24.734;2023-07-13T12:54:41;43.80;15.30
79762;DHT22;69249;42.122;24.734;2023-07-13T12:57:15;43.80;15.20
79762;DHT22;69249;42.122;24.734;2023-07-13T12:59:42;43.90;15.30
79762;DHT22;69249;42.122;24.734;2023-07-13T13:02:30;43.90;15.20
79762;DHT22;69249;42.122;24.734;2023-07-13T13:04:57;43.70;15.30
79762;DHT22;69249;42.122;24.734;2023-07-13T13:07:24;43.60;16.20
79762;DHT22;69249;42.122;24.734;2023-07-13T13:09:50;43.40;15.70
79762;DHT22;69249;42.122;24.734;2023-07-13T13:12:17;43.20;16.00
79762;DHT22;69249;42.122;24.734;2023-07-13T13:14:43;43.00;16.20
79762;DHT22;69249;42.122;24.734;2023-07-13T13:17:20;43.00;16.10
79762;DHT22;69249;42.122;24.734;2023-07-13T13:19:47;42.80;15.90
79762;DHT22;69249;42.122;24.734;2023-07-13T13:22:13;42.80;16.00
79762;DHT22;69249;42.122;24.734;2023-07-13T13:24:39;42.70;15.90
79762;DHT22;69249;42.122;24.734;2023-07-13T13:27:05;42.50;15.90
79762;DHT22;69249;42.122;24.734;2023-07-13T13:29:32;42.30;15.50
79762;DHT22;69249;42.122;24.734;2023-07-13T13:31:59;42.30;15.90
79762;DHT22;69249;42.122;24.734;2023-07-13T13:34:25;42.10;15.90
79762;DHT22;69249;42.122;24.734;2023-07-13T13:36:53;42.00;15.70
79762;DHT22;69249;42.122;24.734;2023-07-13T13:39:25;41.90;15.80
79762;DHT22;69249;42.122;24.734;2023-07-13T13:41:53;41.80;16.30
79762;DHT22;69249;42.122;24.734;2023-07-13T13:44:20;41.70;16.40
79762;DHT22;69249;42.122;24.734;2023-07-13T13:46:49;41.60;15.90
79762;DHT22;69249;42.122;24.734;2023-07-13T13:49:18;41.50;16.00
79762;DHT22;69249;42.122;24.734;2023-07-13T13:51:45;41.40;16.20
79762;DHT22;69249;42.122;24.734;2023-07-13T13:54:13;41.50;15.70
79762;DHT22;69249;42.122;24.734;2023-07-13T13:56:41;41.50;16.30
79762;DHT22;69249;42.122;24.734;2023-07-13T13:59:07;41.40;16.40
79762;DHT22;69249;42.122;24.734;2023-07-13T14:01:34;41.40;16.00
79762;DHT22;69249;42.122;24.734;2023-07-13T14:04:00;41.60;16.50
79762;DHT22;69249;42.122;24.734;2023-07-13T14:06:26;41.60;16.70
79762;DHT22;69249;42.122;24.734;2023-07-13T14:08:52;41.60;16.90
79762;DHT22;69249;42.122;24.734;2023-07-13T14:11:21;41.60;16.50
79762;DHT22;69249;42.122;24.734;2023-07-13T14:13:58;41.50;16.80
79762;DHT22;69249;42.122;24.734;2023-07-13T14:16:28;41.50;17.40
79762;DHT22;69249;42.122;24.734;2023-07-13T14:18:55;41.50;17.30
79762;DHT22;69249;42.122;24.734;2023-07-13T14:21:24;41.50;17.60
79762;DHT22;69249;42.122;24.734;2023-07-13T14:23:50;41.60;17.70
79762;DHT22;69249;42.122;24.734;2023-07-13T14:26:26;41.70;16.90
79762;DHT22;69249;42.122;24.734;2023-07-13T14:28:56;41.90;16.60
79762;DHT22;69249;42.122;24.734;2023-07-13T14:31:24;41.90;16.40
79762;DHT22;69249;42.122;24.734;2023-07-13T14:33:50;41.90;16.20
79762;DHT22;69249;42.122;24.734;2023-07-13T14:36:40;41.80;17.10
79762;DHT22;69249;42.122;24.734;2023-07-13T14:39:16;41.60;17.10
79762;DHT22;69249;42.122;24.734;2023-07-13T14:41:43;41.60;17.10
79762;DHT22;69249;42.122;24.734;2023-07-13T14:44:16;41.70;16.80
79762;DHT22;69249;42.122;24.734;2023-07-13T14:46:44;41.80;16.70
79762;DHT22;69249;42.122;24.734;2023-07-13T14:51:35;41.80;16.70
79762;DHT22;69249;42.122;24.734;2023-07-13T14:54:04;41.80;16.80
79762;DHT22;69249;42.122;24.734;2023-07-13T14:56:30;41.70;16.70
79762;DHT22;69249;42.122;24.734;2023-07-13T14:58:56;41.60;17.20
79762;DHT22;69249;42.122;24.734;2023-07-13T15:01:23;41.50;18.40
79762;DHT22;69249;42.122;24.734;2023-07-13T15:03:50;41.40;17.40
79762;DHT22;69249;42.122;24.734;2023-07-13T15:06:17;41.40;16.70
79762;DHT22;69249;42.122;24.734;2023-07-13T15:08:45;41.40;16.90
79762;DHT22;69249;42.122;24.734;2023-07-13T15:11:11;41.30;17.20
79762;DHT22;69249;42.122;24.734;2023-07-13T15:13:38;41.30;17.90
79762;DHT22;69249;42.122;24.734;2023-07-13T15:16:09;41.20;17.40
79762;DHT22;69249;42.122;24.734;2023-07-13T15:18:38;41.10;17.40
79762;DHT22;69249;42.122;24.734;2023-07-13T15:21:09;41.00;17.40
79762;DHT22;69249;42.122;24.734;2023-07-13T15:23:36;41.00;17.20
79762;DHT22;69249;42.122;24.734;2023-07-13T15:26:02;40.90;17.50
79762;DHT22;69249;42.122;24.734;2023-07-13T15:28:28;40.80;17.40
79762;DHT22;69249;42.122;24.734;2023-07-13T15:30:54;40.80;17.10
79762;DHT22;69249;42.122;24.734;2023-07-13T15:33:26;40.90;17.10
79762;DHT22;69249;42.122;24.734;2023-07-13T15:35:52;40.80;17.20
79762;DHT22;69249;42.122;24.734;2023-07-13T15:38:33;40.90;17.50
79762;DHT22;69249;42.122;24.734;2023-07-13T15:43:40;40.80;17.60
79762;DHT22;69249;42.122;24.734;2023-07-13T15:46:05;40.80;17.70
79762;DHT22;69249;42.122;24.734;2023-07-13T15:48:31;40.70;17.80
79762;DHT22;69249;42.122;24.734;2023-07-13T15:51:01;40.70;17.80
79762;DHT22;69249;42.122;24.734;2023-07-13T15:53:32;40.70;18.30
79762;DHT22;69249;42.122;24.734;2023-07-13T15:55:59;40.70;17.90
79762;DHT22;69249;42.122;24.734;2023-07-13T15:58:25;40.60;18.40
79762;DHT22;69249;42.122;24.734;2023-07-13T16:00:52;40.50;17.70
79762;DHT22;69249;42.122;24.734;2023-07-13T16:03:20;40.40;18.40
79762;DHT22;69249;42.122;24.734;2023-07-13T16:05:46;40.30;18.30